createdAt,value
2023-01-29T00:01:54.252Z,8.73
2023-01-29T00:04:21.083Z,8.48
2023-01-29T00:06:47.885Z,7.20
2023-01-29T00:09:14.892Z,11.02
2023-01-29T00:11:41.733Z,8.27
2023-01-29T00:14:08.488Z,7.82
2023-01-29T00:16:35.241Z,8.00
2023-01-29T00:19:02.740Z,8.23
2023-01-29T00:21:31.160Z,9.57
2023-01-29T00:23:58.704Z,8.85
2023-01-29T00:26:25.943Z,12.43
2023-01-29T00:28:52.649Z,9.02
2023-01-29T00:31:22.138Z,9.75
2023-01-29T00:33:49.495Z,9.95
2023-01-29T00:36:17.767Z,9.68
2023-01-29T00:38:44.557Z,7.47
2023-01-29T00:41:32.653Z,10.60
2023-01-29T00:44:18.447Z,9.63
2023-01-29T00:46:45.258Z,7.78
2023-01-29T00:49:12.315Z,8.10
2023-01-29T00:51:39.684Z,7.25
2023-01-29T00:54:06.960Z,6.80
2023-01-29T00:56:37.223Z,7.85
2023-01-29T00:59:04.625Z,24.08
2023-01-29T01:01:49.962Z,8.38
2023-01-29T01:04:16.751Z,7.43
2023-01-29T01:06:43.796Z,7.70
2023-01-29T01:09:29.777Z,6.78
2023-01-29T01:11:56.488Z,7.10
2023-01-29T01:14:23.339Z,9.80
2023-01-29T01:16:50.362Z,7.20
2023-01-29T01:19:17.848Z,9.95
2023-01-29T01:21:47.110Z,8.77
2023-01-29T01:24:14.117Z,8.52
2023-01-29T01:26:40.900Z,7.28
2023-01-29T01:29:07.678Z,9.48
2023-01-29T01:31:34.427Z,8.82
2023-01-29T01:34:01.421Z,7.78
2023-01-29T01:36:28.278Z,8.90
2023-01-29T01:38:55.073Z,7.85
2023-01-29T01:41:23.142Z,7.88
2023-01-29T01:43:58.116Z,8.52
2023-01-29T01:46:29.783Z,6.82
2023-01-29T01:49:03.587Z,8.30
2023-01-29T01:51:31.980Z,8.52
2023-01-29T01:54:04.228Z,6.90
2023-01-29T01:56:38.597Z,10.47
2023-01-29T01:59:18.940Z,9.07
2023-01-29T02:01:50.168Z,6.45
2023-01-29T02:04:36.943Z,11.75
2023-01-29T02:07:23.728Z,7.00
2023-01-29T02:09:54.405Z,7.93
2023-01-29T02:12:21.450Z,8.88
2023-01-29T02:14:48.214Z,8.63
2023-01-29T02:17:16.939Z,8.68
2023-01-29T02:19:46.801Z,7.95
2023-01-29T02:22:39.282Z,7.82
2023-01-29T02:25:40.771Z,7.53
2023-01-29T02:28:23.064Z,7.13
2023-01-29T02:31:23.454Z,8.73
2023-01-29T02:34:06.440Z,9.38
2023-01-29T02:36:38.957Z,7.10
2023-01-29T02:39:14.729Z,8.32
2023-01-29T02:42:06.232Z,7.55
2023-01-29T02:44:39.872Z,9.85
2023-01-29T02:47:16.947Z,7.72
2023-01-29T02:50:13.459Z,7.10
2023-01-29T02:53:03.364Z,7.40
2023-01-29T02:55:41.422Z,7.63
2023-01-29T02:58:31.640Z,6.72
2023-01-29T03:01:02.287Z,8.70
2023-01-29T03:03:50.999Z,6.78
2023-01-29T03:06:32.947Z,7.13
2023-01-29T03:09:01.952Z,9.45
2023-01-29T03:11:39.772Z,7.55
2023-01-29T03:14:13.367Z,6.63
2023-01-29T03:16:45.300Z,6.38
2023-01-29T03:19:48.919Z,6.70
2023-01-29T03:22:16.747Z,9.13
2023-01-29T03:25:17.242Z,10.35
2023-01-29T03:28:18.355Z,9.13
2023-01-29T03:31:14.241Z,6.50
2023-01-29T03:33:45.186Z,8.63
2023-01-29T03:36:18.282Z,7.80
2023-01-29T03:41:31.460Z,6.60
2023-01-29T03:44:15.168Z,8.55
2023-01-29T03:46:48.382Z,6.82
2023-01-29T03:49:39.264Z,8.00
2023-01-29T03:52:31.331Z,8.68
2023-01-29T03:55:07.060Z,7.28
2023-01-29T03:57:46.396Z,9.63
2023-01-29T04:00:19.435Z,6.53
2023-01-29T04:05:17.258Z,8.02
2023-01-29T04:07:43.939Z,9.30
2023-01-29T04:10:19.418Z,7.43
2023-01-29T04:12:48.649Z,7.65
2023-01-29T04:15:16.248Z,8.13
2023-01-29T04:17:51.764Z,7.75
2023-01-29T04:20:19.487Z,7.18
2023-01-29T04:22:48.558Z,8.50
2023-01-29T04:25:18.075Z,7.45
2023-01-29T04:28:08.778Z,8.13
2023-01-29T04:31:08.830Z,7.68
2023-01-29T04:33:49.893Z,8.68
2023-01-29T04:36:41.257Z,8.02
2023-01-29T04:39:26.083Z,9.70
2023-01-29T04:42:00.127Z,9.95
2023-01-29T04:44:39.632Z,7.13
2023-01-29T04:47:29.166Z,8.38
2023-01-29T04:50:15.077Z,8.60
2023-01-29T04:52:50.417Z,10.38
2023-01-29T04:55:39.119Z,8.50
2023-01-29T04:58:10.400Z,9.55
2023-01-29T05:00:55.208Z,9.32
2023-01-29T05:03:23.979Z,9.82
2023-01-29T05:05:50.661Z,9.13
2023-01-29T05:08:20.767Z,7.60
2023-01-29T05:10:48.457Z,9.35
2023-01-29T05:13:15.704Z,9.85
2023-01-29T05:15:45.712Z,9.65
2023-01-29T05:18:12.414Z,8.27
2023-01-29T05:20:40.548Z,7.45
2023-01-29T05:23:17.683Z,8.07
2023-01-29T05:25:45.429Z,9.80
2023-01-29T05:28:16.588Z,8.43
2023-01-29T05:30:47.590Z,7.82
2023-01-29T05:33:19.304Z,8.77
2023-01-29T05:35:46.365Z,11.30
2023-01-29T05:38:13.340Z,8.23
2023-01-29T05:40:40.209Z,8.15
2023-01-29T05:43:15.285Z,8.88
2023-01-29T05:45:42.022Z,8.15
2023-01-29T05:48:08.769Z,8.63
2023-01-29T05:50:35.767Z,10.38
2023-01-29T05:53:02.710Z,8.32
2023-01-29T05:55:29.781Z,9.13
2023-01-29T05:57:56.503Z,8.80
2023-01-29T06:00:23.441Z,11.00
2023-01-29T06:02:50.200Z,10.38
2023-01-29T06:05:17.070Z,8.93
2023-01-29T06:07:45.590Z,9.68
2023-01-29T06:10:14.447Z,11.18
2023-01-29T06:12:42.446Z,8.02
2023-01-29T06:15:09.747Z,9.55
2023-01-29T06:17:36.458Z,8.68
2023-01-29T06:20:04.137Z,11.07
2023-01-29T06:22:30.897Z,11.10
2023-01-29T06:24:57.613Z,10.40
2023-01-29T06:27:24.697Z,8.18
2023-01-29T06:29:51.414Z,10.27
2023-01-29T06:32:18.285Z,10.25
2023-01-29T06:34:45.178Z,9.68
2023-01-29T06:37:11.881Z,10.63
2023-01-29T06:39:38.684Z,9.00
2023-01-29T06:42:05.504Z,9.75
2023-01-29T06:44:32.190Z,8.95
2023-01-29T06:46:59.089Z,10.07
2023-01-29T06:49:25.947Z,8.35
2023-01-29T06:51:53.117Z,10.10
2023-01-29T06:54:19.935Z,10.25
2023-01-29T06:56:46.647Z,11.00
2023-01-29T06:59:13.442Z,12.38
2023-01-29T07:01:44.460Z,10.20
2023-01-29T07:04:11.546Z,10.18
2023-01-29T07:06:38.184Z,10.23
2023-01-29T07:09:05.176Z,8.88
2023-01-29T07:11:32.547Z,8.90
2023-01-29T07:13:59.432Z,8.55
2023-01-29T07:16:26.627Z,9.55
2023-01-29T07:18:53.455Z,9.88
2023-01-29T07:21:20.127Z,9.05
2023-01-29T07:23:46.815Z,12.13
2023-01-29T07:26:13.481Z,11.02
2023-01-29T07:28:40.838Z,10.52
2023-01-29T07:31:08.384Z,10.23
2023-01-29T07:33:35.250Z,9.98
2023-01-29T07:36:02.051Z,10.13
2023-01-29T07:38:28.943Z,8.77
2023-01-29T07:40:55.622Z,9.85
2023-01-29T07:43:24.896Z,11.18
2023-01-29T07:45:52.171Z,9.63
2023-01-29T07:48:19.055Z,11.88
2023-01-29T07:50:45.760Z,8.75
2023-01-29T07:53:15.652Z,11.38
2023-01-29T07:55:45.735Z,7.70
2023-01-29T07:58:12.632Z,8.93
2023-01-29T08:00:39.342Z,9.68
2023-01-29T08:03:07.758Z,7.97
2023-01-29T08:05:34.540Z,9.52
2023-01-29T08:08:06.918Z,9.80
2023-01-29T08:10:37.782Z,9.05
2023-01-29T08:13:05.150Z,10.23
2023-01-29T08:15:32.264Z,11.10
2023-01-29T08:17:59.095Z,8.13
2023-01-29T08:20:25.862Z,10.65
2023-01-29T08:23:02.834Z,9.38
2023-01-29T08:25:29.876Z,9.05
2023-01-29T08:27:58.009Z,10.52
2023-01-29T08:30:26.681Z,10.85
2023-01-29T08:32:53.468Z,10.82
2023-01-29T08:35:20.652Z,10.05
2023-01-29T08:37:55.200Z,8.27
2023-01-29T08:40:22.456Z,10.57
2023-01-29T08:42:49.118Z,9.60
2023-01-29T08:45:16.029Z,8.88
2023-01-29T08:47:49.549Z,8.98
2023-01-29T08:50:17.820Z,11.60
2023-01-29T08:52:45.274Z,11.90
2023-01-29T08:55:12.365Z,10.68
2023-01-29T08:57:39.360Z,8.38
2023-01-29T09:00:07.576Z,10.95
2023-01-29T09:02:34.249Z,15.60
2023-01-29T09:05:00.929Z,11.93
2023-01-29T09:07:29.465Z,10.48
2023-01-29T09:09:56.267Z,8.30
2023-01-29T09:12:22.941Z,10.70
2023-01-29T09:14:49.622Z,8.48
2023-01-29T09:17:16.254Z,8.13
2023-01-29T09:19:43.048Z,9.73
2023-01-29T09:22:11.618Z,10.63
2023-01-29T09:24:38.620Z,13.13
2023-01-29T09:27:06.270Z,10.32
2023-01-29T09:29:35.703Z,9.77
2023-01-29T09:32:03.998Z,10.20
2023-01-29T09:34:30.674Z,9.75
2023-01-29T09:36:57.415Z,8.93
2023-01-29T09:39:24.153Z,9.75
2023-01-29T09:42:17.420Z,10.18
2023-01-29T09:45:05.122Z,9.70
2023-01-29T09:47:33.980Z,14.50
2023-01-29T09:50:06.891Z,8.88
2023-01-29T09:52:39.749Z,9.52
2023-01-29T09:55:13.306Z,9.55
2023-01-29T09:57:39.952Z,8.15
2023-01-29T10:00:07.434Z,11.25
2023-01-29T10:02:56.335Z,7.90
2023-01-29T10:05:50.606Z,9.10
2023-01-29T10:08:41.500Z,8.00
2023-01-29T10:11:15.143Z,10.00
2023-01-29T10:13:48.628Z,8.70
2023-01-29T10:17:04.934Z,9.80
2023-01-29T10:19:53.170Z,9.50
2023-01-29T10:22:31.857Z,10.63
2023-01-29T10:25:01.129Z,9.88
2023-01-29T10:27:38.656Z,9.30
2023-01-29T10:30:20.016Z,8.80
2023-01-29T10:32:46.698Z,11.00
2023-01-29T10:35:16.318Z,10.50
2023-01-29T10:37:43.713Z,9.15
2023-01-29T10:40:31.449Z,9.73
2023-01-29T10:43:33.855Z,9.45
2023-01-29T10:46:16.839Z,9.05
2023-01-29T10:49:02.118Z,8.48
2023-01-29T10:51:48.934Z,10.35
2023-01-29T10:54:15.600Z,10.48
2023-01-29T10:56:48.900Z,10.02
2023-01-29T10:59:21.847Z,9.95
2023-01-29T11:01:48.526Z,11.63
2023-01-29T11:04:15.237Z,9.68
2023-01-29T11:06:41.876Z,12.02
2023-01-29T11:09:14.152Z,11.20
2023-01-29T11:11:50.727Z,9.38
2023-01-29T11:14:22.104Z,13.15
2023-01-29T11:16:48.983Z,9.40
2023-01-29T11:19:16.425Z,9.63
2023-01-29T11:21:59.119Z,8.55
2023-01-29T11:24:26.149Z,9.95
2023-01-29T11:26:57.712Z,9.27
2023-01-29T11:29:30.162Z,8.68
2023-01-29T11:32:00.987Z,9.18
2023-01-29T11:34:36.793Z,9.23
2023-01-29T11:37:05.172Z,8.65
2023-01-29T11:39:32.780Z,10.02
2023-01-29T11:42:04.178Z,10.18
2023-01-29T11:44:32.920Z,10.75
2023-01-29T11:47:12.185Z,11.05
2023-01-29T11:49:39.635Z,9.27
2023-01-29T11:52:09.115Z,11.70
2023-01-29T11:54:43.952Z,10.00
2023-01-29T11:57:43.937Z,10.60
2023-01-29T12:00:17.062Z,11.85
2023-01-29T12:05:19.288Z,11.85
2023-01-29T12:07:50.695Z,10.10
2023-01-29T12:10:36.192Z,11.15
2023-01-29T12:13:09.811Z,10.13
2023-01-29T12:15:37.440Z,9.73
2023-01-29T12:18:13.489Z,11.10
2023-01-29T12:20:47.091Z,13.60
2023-01-29T12:23:41.710Z,10.43
2023-01-29T12:26:23.454Z,13.18
2023-01-29T12:29:21.545Z,11.30
2023-01-29T12:32:12.713Z,11.38
2023-01-29T12:34:46.580Z,9.70
2023-01-29T12:37:24.196Z,11.75
2023-01-29T12:39:51.366Z,10.75
2023-01-29T12:42:22.853Z,11.88
2023-01-29T12:44:58.861Z,11.93
2023-01-29T12:47:38.113Z,12.23
2023-01-29T12:50:24.881Z,11.32
2023-01-29T12:53:00.489Z,9.30
2023-01-29T12:55:35.232Z,11.15
2023-01-29T12:58:10.449Z,10.20
2023-01-29T13:00:39.984Z,9.15
2023-01-29T13:03:26.594Z,12.00
2023-01-29T13:06:10.721Z,11.70
2023-01-29T13:08:43.544Z,10.70
2023-01-29T13:11:18.550Z,10.57
2023-01-29T13:13:54.368Z,11.77
2023-01-29T13:16:24.135Z,10.32
2023-01-29T13:18:55.613Z,11.63
2023-01-29T13:21:46.421Z,11.95
2023-01-29T13:24:20.718Z,13.50
2023-01-29T13:26:48.121Z,15.65
2023-01-29T13:29:28.204Z,11.95
2023-01-29T13:32:08.101Z,12.80
2023-01-29T13:34:37.187Z,13.93
2023-01-29T13:37:11.751Z,14.95
2023-01-29T13:39:48.256Z,11.82
2023-01-29T13:42:24.153Z,11.32
2023-01-29T13:44:52.762Z,12.35
2023-01-29T13:47:28.106Z,9.93
2023-01-29T13:49:57.792Z,10.27
2023-01-29T13:52:37.144Z,10.70
2023-01-29T13:55:05.454Z,11.30
2023-01-29T13:57:44.369Z,10.25
2023-01-29T14:00:34.306Z,10.35
2023-01-29T14:03:01.067Z,11.55
2023-01-29T14:05:30.995Z,11.90
2023-01-29T14:07:59.713Z,12.70
2023-01-29T14:10:28.214Z,13.05
2023-01-29T14:13:01.448Z,10.35
2023-01-29T14:15:29.906Z,13.02
2023-01-29T14:18:05.934Z,11.32
2023-01-29T14:21:05.397Z,13.77
2023-01-29T14:23:41.601Z,14.02
2023-01-29T14:26:22.325Z,12.48
2023-01-29T14:29:14.457Z,14.30
2023-01-29T14:31:52.448Z,14.38
2023-01-29T14:34:29.851Z,14.65
2023-01-29T14:37:19.098Z,12.85
2023-01-29T14:39:45.774Z,12.82
2023-01-29T14:42:58.579Z,13.77
2023-01-29T14:45:31.183Z,12.75
2023-01-29T14:47:57.887Z,12.90
2023-01-29T14:50:33.641Z,12.65
2023-01-29T14:53:19.035Z,12.48
2023-01-29T14:56:09.947Z,12.40
2023-01-29T14:58:39.255Z,14.70
2023-01-29T15:01:12.279Z,15.20
2023-01-29T15:04:05.294Z,14.93
2023-01-29T15:06:47.916Z,13.77
2023-01-29T15:09:18.503Z,13.07
2023-01-29T15:12:00.506Z,13.77
2023-01-29T15:14:47.866Z,14.27
2023-01-29T15:17:38.525Z,15.20
2023-01-29T15:20:45.167Z,20.52
2023-01-29T15:23:27.226Z,15.70
2023-01-29T15:26:01.879Z,14.45
2023-01-29T15:28:33.961Z,13.43
2023-01-29T15:31:02.282Z,12.27
2023-01-29T15:33:29.257Z,13.65
2023-01-29T15:36:08.687Z,15.25
2023-01-29T15:38:35.731Z,12.98
2023-01-29T15:41:14.161Z,14.45
2023-01-29T15:43:45.096Z,12.57
2023-01-29T15:46:26.025Z,14.00
2023-01-29T15:48:53.399Z,13.55
2023-01-29T15:51:21.566Z,13.18
2023-01-29T15:53:56.055Z,13.27
2023-01-29T15:56:36.030Z,12.50
2023-01-29T15:59:09.416Z,15.88
2023-01-29T16:01:36.633Z,16.90
2023-01-29T16:04:03.491Z,17.23
2023-01-29T16:06:34.226Z,19.40
2023-01-29T16:09:00.919Z,19.98
2023-01-29T16:11:27.627Z,19.55
2023-01-29T16:13:54.311Z,15.77
2023-01-29T16:16:24.373Z,15.88
2023-01-29T16:18:59.989Z,20.35
2023-01-29T16:21:34.761Z,17.13
2023-01-29T16:24:09.457Z,15.93
2023-01-29T16:26:45.080Z,17.30
2023-01-29T16:29:16.663Z,19.33
2023-01-29T16:31:43.960Z,17.55
2023-01-29T16:34:17.317Z,16.33
2023-01-29T16:36:47.364Z,16.85
2023-01-29T16:39:29.190Z,19.63
2023-01-29T16:42:12.458Z,17.23
2023-01-29T16:47:33.109Z,17.55
2023-01-29T16:50:02.414Z,21.63
2023-01-29T16:52:31.920Z,20.27
2023-01-29T16:55:20.291Z,18.65
2023-01-29T16:57:51.025Z,17.00
2023-01-29T17:00:26.436Z,25.13
2023-01-29T17:03:01.281Z,21.23
2023-01-29T17:05:30.056Z,22.63
2023-01-29T17:07:58.571Z,25.88
2023-01-29T17:10:26.603Z,22.90
2023-01-29T17:13:04.688Z,25.73
2023-01-29T17:15:43.656Z,21.95
2023-01-29T17:18:23.914Z,25.15
2023-01-29T17:20:50.828Z,24.40
2023-01-29T17:23:17.747Z,22.10
2023-01-29T17:25:44.671Z,19.08
2023-01-29T17:28:15.598Z,18.92
2023-01-29T17:30:44.645Z,20.60
2023-01-29T17:33:18.690Z,23.27
2023-01-29T17:35:45.589Z,19.83
2023-01-29T17:38:24.989Z,20.90
2023-01-29T17:41:22.656Z,47.55
2023-01-29T17:43:49.366Z,45.72
2023-01-29T17:46:17.232Z,43.95
2023-01-29T17:48:44.769Z,39.05
2023-01-29T17:51:16.267Z,35.63
2023-01-29T17:53:46.057Z,30.70
2023-01-29T17:56:27.609Z,29.75
2023-01-29T17:58:54.561Z,29.35
2023-01-29T18:01:21.219Z,24.27
2023-01-29T18:03:47.924Z,23.40
2023-01-29T18:06:37.743Z,25.13
2023-01-29T18:09:04.662Z,18.95
2023-01-29T18:11:31.646Z,23.00
2023-01-29T18:13:58.418Z,19.23
2023-01-29T18:16:28.692Z,19.63
2023-01-29T18:18:55.395Z,19.65
2023-01-29T18:21:22.739Z,18.67
2023-01-29T18:23:49.547Z,20.85
2023-01-29T18:26:16.924Z,19.05
2023-01-29T18:28:43.911Z,16.13
2023-01-29T18:31:12.378Z,20.10
2023-01-29T18:33:40.402Z,17.52
2023-01-29T18:36:07.802Z,18.98
2023-01-29T18:38:34.521Z,18.13
2023-01-29T18:41:06.133Z,17.55
2023-01-29T18:43:32.971Z,19.33
2023-01-29T18:45:59.989Z,19.90
2023-01-29T18:48:26.760Z,20.80
2023-01-29T18:50:53.457Z,18.23
2023-01-29T18:53:20.159Z,17.05
2023-01-29T18:55:58.078Z,16.50
2023-01-29T18:58:32.085Z,19.02
2023-01-29T19:01:09.190Z,18.70
2023-01-29T19:06:04.151Z,20.27
2023-01-29T19:08:31.025Z,19.75
2023-01-29T19:10:58.822Z,18.73
2023-01-29T19:13:26.506Z,17.55
2023-01-29T19:15:53.298Z,23.08
2023-01-29T19:18:20.581Z,25.02
2023-01-29T19:20:47.260Z,19.52
2023-01-29T19:23:13.976Z,21.67
2023-01-29T19:25:40.665Z,22.30
2023-01-29T19:28:07.738Z,27.02
2023-01-29T19:30:34.740Z,25.20
2023-01-29T19:33:01.902Z,30.10
2023-01-29T19:35:28.668Z,29.73
2023-01-29T19:37:55.439Z,32.22
2023-01-29T19:40:22.288Z,32.10
2023-01-29T19:42:49.059Z,29.33
2023-01-29T19:45:16.077Z,27.00
2023-01-29T19:47:43.413Z,30.92
2023-01-29T19:50:11.227Z,34.03
2023-01-29T19:52:50.596Z,25.70
2023-01-29T19:55:19.064Z,26.70
2023-01-29T19:57:46.115Z,27.23
2023-01-29T20:00:14.923Z,25.23
2023-01-29T20:02:41.556Z,27.33
2023-01-29T20:05:11.340Z,28.17
2023-01-29T20:07:39.964Z,25.35
2023-01-29T20:10:11.705Z,22.20
2023-01-29T20:12:38.546Z,27.20
2023-01-29T20:15:07.356Z,23.38
2023-01-29T20:17:34.110Z,25.13
2023-01-29T20:20:00.882Z,27.40
2023-01-29T20:22:29.305Z,28.73
2023-01-29T20:24:56.400Z,30.85
2023-01-29T20:27:23.123Z,38.67
2023-01-29T20:29:52.056Z,35.00
2023-01-29T20:32:18.832Z,38.22
2023-01-29T20:34:49.705Z,38.63
2023-01-29T20:37:16.447Z,45.90
2023-01-29T20:39:43.160Z,39.63
2023-01-29T20:42:09.853Z,38.00
2023-01-29T20:44:36.554Z,34.22
2023-01-29T20:47:04.171Z,34.95
2023-01-29T20:49:31.833Z,38.25
2023-01-29T20:51:58.601Z,37.13
2023-01-29T20:54:25.440Z,36.05
2023-01-29T20:56:52.333Z,37.63
2023-01-29T20:59:19.578Z,43.72
2023-01-29T21:01:46.526Z,46.13
2023-01-29T21:04:13.300Z,41.53
2023-01-29T21:06:40.071Z,41.03
2023-01-29T21:09:06.876Z,41.67
2023-01-29T21:11:33.769Z,37.45
2023-01-29T21:14:01.973Z,35.22
2023-01-29T21:16:29.023Z,35.45
2023-01-29T21:18:59.223Z,32.88
2023-01-29T21:21:26.862Z,33.65
2023-01-29T21:23:53.862Z,36.25
2023-01-29T21:26:20.973Z,35.28
2023-01-29T21:28:47.765Z,36.22
2023-01-29T21:31:17.825Z,38.75
2023-01-29T21:33:47.531Z,34.92
2023-01-29T21:36:14.250Z,36.53
2023-01-29T21:38:41.050Z,44.30
2023-01-29T21:41:09.698Z,42.65
2023-01-29T21:43:39.898Z,39.55
2023-01-29T21:46:13.573Z,41.50
2023-01-29T21:48:40.521Z,41.60
2023-01-29T21:51:08.334Z,42.08
2023-01-29T21:53:36.917Z,41.67
2023-01-29T21:56:05.096Z,40.58
2023-01-29T21:58:32.136Z,38.28
2023-01-29T22:01:35.927Z,45.28
2023-01-29T22:03:47.167Z,44.13
2023-01-29T22:06:14.071Z,45.72
2023-01-29T22:08:40.787Z,44.65
2023-01-29T22:11:08.061Z,48.28
2023-01-29T22:13:35.241Z,49.33
2023-01-29T22:16:02.044Z,51.20
2023-01-29T22:18:28.808Z,48.83
2023-01-29T22:20:56.148Z,47.72
2023-01-29T22:23:23.292Z,45.50
2023-01-29T22:25:50.291Z,47.05
2023-01-29T22:28:17.792Z,42.35
2023-01-29T22:30:45.275Z,44.03
2023-01-29T22:33:12.369Z,43.20
2023-01-29T22:35:39.070Z,42.30
2023-01-29T22:38:05.938Z,41.45
2023-01-29T22:40:32.911Z,38.28
2023-01-29T22:42:59.574Z,37.97
2023-01-29T22:45:26.408Z,30.75
2023-01-29T22:47:53.036Z,30.65
2023-01-29T22:50:19.939Z,32.22
2023-01-29T22:52:53.996Z,31.13
2023-01-29T22:55:21.069Z,31.23
2023-01-29T22:57:50.818Z,26.52
2023-01-29T23:00:18.335Z,25.02
2023-01-29T23:02:48.650Z,23.17
2023-01-29T23:05:15.643Z,23.83
2023-01-29T23:07:42.361Z,25.02
2023-01-29T23:10:11.295Z,20.63
2023-01-29T23:12:37.961Z,23.00
2023-01-29T23:15:05.777Z,21.70
2023-01-29T23:17:32.503Z,22.48
2023-01-29T23:19:59.277Z,18.80
2023-01-29T23:22:25.903Z,21.17
2023-01-29T23:24:53.114Z,21.08
2023-01-29T23:27:20.133Z,22.83
2023-01-29T23:29:48.151Z,23.42
2023-01-29T23:32:18.963Z,22.85
2023-01-29T23:34:45.648Z,22.83
2023-01-29T23:37:12.443Z,24.48
2023-01-29T23:39:39.211Z,26.50
2023-01-29T23:42:06.086Z,21.45
2023-01-29T23:44:32.846Z,26.15
2023-01-29T23:46:59.562Z,24.17
2023-01-29T23:49:26.313Z,22.33
2023-01-29T23:51:53.159Z,22.17
2023-01-29T23:54:19.878Z,25.42
2023-01-29T23:56:46.576Z,24.45
2023-01-29T23:59:13.465Z,20.88
